createdAt,value
2022-08-20T00:00:21.336Z,97.60
2022-08-20T00:02:51.997Z,97.50
2022-08-20T00:05:37.177Z,97.70
2022-08-20T00:08:04.219Z,97.20
2022-08-20T00:10:32.990Z,96.70
2022-08-20T00:12:59.861Z,96.60
2022-08-20T00:15:30.132Z,96.70
2022-08-20T00:17:57.603Z,96.40
2022-08-20T00:20:31.438Z,96.40
2022-08-20T00:22:59.311Z,96.50
2022-08-20T00:25:28.759Z,96.40
2022-08-20T00:27:57.038Z,96.10
2022-08-20T00:30:24.977Z,96.40
2022-08-20T00:32:55.873Z,96.20
2022-08-20T00:35:25.284Z,96.10
2022-08-20T00:37:55.384Z,96.20
2022-08-20T00:40:40.321Z,96.10
2022-08-20T00:43:24.464Z,96.40
2022-08-20T00:45:55.372Z,96.30
2022-08-20T00:48:26.886Z,96.20
2022-08-20T00:50:59.310Z,96.20
2022-08-20T00:53:26.970Z,96.40
2022-08-20T00:55:53.966Z,96.40
2022-08-20T00:58:20.882Z,96.20
2022-08-20T01:00:49.698Z,96.20
2022-08-20T01:03:20.389Z,96.30
2022-08-20T01:05:50.279Z,96.30
2022-08-20T01:08:19.397Z,96.40
2022-08-20T01:10:49.651Z,96.60
2022-08-20T01:13:20.669Z,96.20
2022-08-20T01:15:49.612Z,96.20
2022-08-20T01:18:25.287Z,96.30
2022-08-20T01:21:00.957Z,95.90
2022-08-20T01:24:01.125Z,96.10
2022-08-20T01:26:34.283Z,96.00
2022-08-20T01:29:10.898Z,96.00
2022-08-20T01:31:40.081Z,96.30
2022-08-20T01:34:10.231Z,96.20
2022-08-20T01:36:46.312Z,95.80
2022-08-20T01:39:18.968Z,96.00
2022-08-20T01:42:00.791Z,96.00
2022-08-20T01:44:28.031Z,96.10
2022-08-20T01:46:59.560Z,96.00
2022-08-20T01:49:32.302Z,95.60
2022-08-20T01:52:05.548Z,96.10
2022-08-20T01:54:33.793Z,96.30
2022-08-20T01:57:10.475Z,96.10
2022-08-20T01:59:37.661Z,96.20
2022-08-20T02:02:05.398Z,96.20
2022-08-20T02:04:32.074Z,96.20
2022-08-20T02:07:02.152Z,96.10
2022-08-20T02:09:32.487Z,96.20
2022-08-20T02:12:00.148Z,96.40
2022-08-20T02:14:27.943Z,96.30
2022-08-20T02:16:56.265Z,96.20
2022-08-20T02:19:31.048Z,96.20
2022-08-20T02:22:00.412Z,96.10
2022-08-20T02:24:27.075Z,96.00
2022-08-20T02:26:54.921Z,96.00
2022-08-20T02:29:21.580Z,96.00
2022-08-20T02:32:24.161Z,96.00
2022-08-20T02:34:35.988Z,96.20
2022-08-20T02:37:04.662Z,96.00
2022-08-20T02:39:31.394Z,95.90
2022-08-20T02:41:58.078Z,96.00
2022-08-20T02:44:24.961Z,95.90
2022-08-20T02:46:51.958Z,96.00
2022-08-20T02:49:19.919Z,95.90
2022-08-20T02:51:46.789Z,96.00
2022-08-20T02:54:14.308Z,96.00
2022-08-20T02:56:41.123Z,96.20
2022-08-20T02:59:08.053Z,96.60
2022-08-20T03:01:37.755Z,97.00
2022-08-20T03:04:04.584Z,97.00
2022-08-20T03:06:31.647Z,97.10
2022-08-20T03:08:58.324Z,97.30
2022-08-20T03:11:24.997Z,97.50
2022-08-20T03:13:52.503Z,97.80
2022-08-20T03:16:19.405Z,98.10
2022-08-20T03:18:47.270Z,98.20
2022-08-20T03:21:15.297Z,98.30
2022-08-20T03:23:42.568Z,98.40
2022-08-20T03:26:11.915Z,98.50
2022-08-20T03:28:39.861Z,98.70
2022-08-20T03:31:06.741Z,98.90
2022-08-20T03:33:33.415Z,99.10
2022-08-20T03:36:00.114Z,99.10
2022-08-20T03:38:32.475Z,99.50
2022-08-20T03:41:00.874Z,99.80
2022-08-20T03:43:27.746Z,99.80
2022-08-20T03:45:54.523Z,99.90
2022-08-20T03:48:21.590Z,99.90
2022-08-20T03:50:50.733Z,99.80
2022-08-20T03:53:17.959Z,99.90
2022-08-20T03:55:53.811Z,99.90
2022-08-20T03:58:22.160Z,99.90
2022-08-20T04:01:03.503Z,99.90
2022-08-20T04:03:30.261Z,99.90
2022-08-20T04:05:56.900Z,99.90
2022-08-20T04:08:26.921Z,99.90
2022-08-20T04:10:54.907Z,99.90
2022-08-20T04:13:22.750Z,99.90
2022-08-20T04:15:53.635Z,99.90
2022-08-20T04:18:23.986Z,99.90
2022-08-20T04:20:52.900Z,99.90
2022-08-20T04:23:21.211Z,99.90
2022-08-20T04:25:48.433Z,99.90
2022-08-20T04:28:28.614Z,99.90
2022-08-20T04:30:57.830Z,99.90
2022-08-20T04:33:33.708Z,99.90
2022-08-20T04:36:03.105Z,99.90
2022-08-20T04:38:47.807Z,99.90
2022-08-20T04:41:22.786Z,99.90
2022-08-20T04:43:53.057Z,99.90
2022-08-20T04:46:20.982Z,99.90
2022-08-20T04:48:48.969Z,99.90
2022-08-20T04:51:18.287Z,99.90
2022-08-20T04:53:53.252Z,99.90
2022-08-20T04:56:23.885Z,99.90
2022-08-20T04:58:52.363Z,99.90
2022-08-20T05:01:19.318Z,99.90
2022-08-20T05:03:47.816Z,99.90
2022-08-20T05:06:16.108Z,99.90
2022-08-20T05:08:43.205Z,99.90
2022-08-20T05:11:36.011Z,99.90
2022-08-20T05:13:57.044Z,99.90
2022-08-20T05:16:24.659Z,99.90
2022-08-20T05:18:52.807Z,99.90
2022-08-20T05:21:21.084Z,99.90
2022-08-20T05:23:49.145Z,99.90
2022-08-20T05:26:16.224Z,99.90
2022-08-20T05:28:54.115Z,99.90
2022-08-20T05:31:31.948Z,99.90
2022-08-20T05:34:01.863Z,99.90
2022-08-20T05:36:29.042Z,99.90
2022-08-20T05:38:55.697Z,99.90
2022-08-20T05:41:28.599Z,99.90
2022-08-20T05:43:58.117Z,99.90
2022-08-20T05:46:24.890Z,99.90
2022-08-20T05:48:51.543Z,99.90
2022-08-20T05:51:18.427Z,99.90
2022-08-20T05:53:45.073Z,99.90
2022-08-20T05:56:11.758Z,99.90
2022-08-20T05:58:38.473Z,99.90
2022-08-20T06:01:05.644Z,99.90
2022-08-20T06:03:51.141Z,99.90
2022-08-20T06:06:44.370Z,99.90
2022-08-20T06:09:04.691Z,99.90
2022-08-20T06:11:36.404Z,99.90
2022-08-20T06:14:04.704Z,99.90
2022-08-20T06:16:31.946Z,99.90
2022-08-20T06:18:58.750Z,99.90
2022-08-20T06:21:25.995Z,99.90
2022-08-20T06:23:58.361Z,99.90
2022-08-20T06:26:30.469Z,99.90
2022-08-20T06:28:58.492Z,99.90
2022-08-20T06:31:25.210Z,99.90
2022-08-20T06:33:51.879Z,99.90
2022-08-20T06:36:19.267Z,99.90
2022-08-20T06:38:47.045Z,99.90
2022-08-20T06:41:14.123Z,99.90
2022-08-20T06:43:40.850Z,99.90
2022-08-20T06:46:07.750Z,99.90
2022-08-20T06:48:34.625Z,99.90
2022-08-20T06:51:01.580Z,99.90
2022-08-20T06:53:29.087Z,99.90
2022-08-20T06:55:58.761Z,99.90
2022-08-20T06:58:37.075Z,99.90
2022-08-20T07:01:09.165Z,99.90
2022-08-20T07:03:38.456Z,99.90
2022-08-20T07:06:06.159Z,99.90
2022-08-20T07:08:33.383Z,99.90
2022-08-20T07:11:00.206Z,99.90
2022-08-20T07:13:28.317Z,99.90
2022-08-20T07:15:55.854Z,99.90
2022-08-20T07:18:27.788Z,99.90
2022-08-20T07:20:57.487Z,99.90
2022-08-20T07:23:25.803Z,99.90
2022-08-20T07:25:53.232Z,99.90
2022-08-20T07:28:22.667Z,99.90
2022-08-20T07:31:13.611Z,99.90
2022-08-20T07:33:44.487Z,99.90
2022-08-20T07:36:12.979Z,99.90
2022-08-20T07:38:39.716Z,99.90
2022-08-20T07:41:09.921Z,99.90
2022-08-20T07:43:36.802Z,99.90
2022-08-20T07:46:08.802Z,99.90
2022-08-20T07:48:39.489Z,99.90
2022-08-20T07:51:07.052Z,99.80
2022-08-20T07:53:36.315Z,99.90
2022-08-20T07:56:06.048Z,99.90
2022-08-20T07:58:33.332Z,99.90
2022-08-20T08:01:00.577Z,99.90
2022-08-20T08:03:40.726Z,99.70
2022-08-20T08:06:17.001Z,99.80
2022-08-20T08:09:02.520Z,99.40
2022-08-20T08:11:29.786Z,99.10
2022-08-20T08:13:56.665Z,98.90
2022-08-20T08:16:23.414Z,98.80
2022-08-20T08:18:56.570Z,98.30
2022-08-20T08:21:23.694Z,98.20
2022-08-20T08:23:50.374Z,97.70
2022-08-20T08:26:19.114Z,97.70
2022-08-20T08:28:46.559Z,97.70
2022-08-20T08:31:13.800Z,97.60
2022-08-20T08:33:41.745Z,97.40
2022-08-20T08:36:14.226Z,97.70
2022-08-20T08:38:44.205Z,97.20
2022-08-20T08:41:34.029Z,97.50
2022-08-20T08:44:39.523Z,97.00
2022-08-20T08:47:18.242Z,97.30
2022-08-20T08:49:47.234Z,96.70
2022-08-20T08:52:24.580Z,96.80
2022-08-20T08:54:56.926Z,95.80
2022-08-20T08:57:24.553Z,95.80
2022-08-20T09:00:03.975Z,95.20
2022-08-20T09:02:32.906Z,94.60
2022-08-20T09:05:02.911Z,95.00
2022-08-20T09:07:33.399Z,95.10
2022-08-20T09:10:01.499Z,94.30
2022-08-20T09:12:28.299Z,94.70
2022-08-20T09:14:55.273Z,94.10
2022-08-20T09:17:23.342Z,94.40
2022-08-20T09:19:52.116Z,94.40
2022-08-20T09:22:22.124Z,94.60
2022-08-20T09:24:50.052Z,95.10
2022-08-20T09:27:17.270Z,95.10
2022-08-20T09:29:44.264Z,94.50
2022-08-20T09:32:21.406Z,94.30
2022-08-20T09:34:58.936Z,94.70
2022-08-20T09:37:29.856Z,94.70
2022-08-20T09:39:58.661Z,94.80
2022-08-20T09:42:28.579Z,94.70
2022-08-20T09:44:55.895Z,94.40
2022-08-20T09:47:22.761Z,94.20
2022-08-20T09:49:49.599Z,93.70
2022-08-20T09:52:22.547Z,93.20
2022-08-20T09:54:51.344Z,92.30
2022-08-20T09:57:18.706Z,92.30
2022-08-20T09:59:51.438Z,91.90
2022-08-20T10:02:18.127Z,91.90
2022-08-20T10:04:44.875Z,92.40
2022-08-20T10:07:12.736Z,92.80
2022-08-20T10:09:42.993Z,92.70
2022-08-20T10:12:09.770Z,92.30
2022-08-20T10:14:36.443Z,91.90
2022-08-20T10:17:04.012Z,91.80
2022-08-20T10:19:31.862Z,91.80
2022-08-20T10:21:59.033Z,92.00
2022-08-20T10:24:26.833Z,92.40
2022-08-20T10:26:58.617Z,91.90
2022-08-20T10:29:26.886Z,91.90
2022-08-20T10:31:55.003Z,92.30
2022-08-20T10:34:21.722Z,92.00
2022-08-20T10:36:48.457Z,92.20
2022-08-20T10:39:15.563Z,92.10
2022-08-20T10:41:42.280Z,92.20
2022-08-20T10:44:09.396Z,92.10
2022-08-20T10:46:36.426Z,91.80
2022-08-20T10:49:03.250Z,91.50
2022-08-20T10:51:32.232Z,91.60
2022-08-20T10:53:59.366Z,91.70
2022-08-20T10:56:26.274Z,92.20
2022-08-20T10:58:53.053Z,92.20
2022-08-20T11:01:32.796Z,92.30
2022-08-20T11:04:00.718Z,92.30
2022-08-20T11:06:27.382Z,92.50
2022-08-20T11:08:54.017Z,92.60
2022-08-20T11:11:23.741Z,92.50
2022-08-20T11:13:50.374Z,92.00
2022-08-20T11:16:17.034Z,91.90
2022-08-20T11:18:47.326Z,91.60
2022-08-20T11:21:14.477Z,91.90
2022-08-20T11:23:41.134Z,91.90
2022-08-20T11:26:08.430Z,91.90
2022-08-20T11:28:35.071Z,92.00
2022-08-20T11:31:02.134Z,91.90
2022-08-20T11:33:29.282Z,91.50
2022-08-20T11:35:56.144Z,91.50
2022-08-20T11:38:22.816Z,91.40
2022-08-20T11:40:50.587Z,90.90
2022-08-20T11:43:18.172Z,91.00
2022-08-20T11:45:48.105Z,91.10
2022-08-20T11:48:15.169Z,90.90
2022-08-20T11:50:41.929Z,90.20
2022-08-20T11:53:08.677Z,90.70
2022-08-20T11:55:36.088Z,90.20
2022-08-20T11:58:04.099Z,90.00
2022-08-20T12:00:33.903Z,89.60
2022-08-20T12:03:02.549Z,89.50
2022-08-20T12:05:31.972Z,89.40
2022-08-20T12:08:01.428Z,89.60
2022-08-20T12:10:29.019Z,88.40
2022-08-20T12:12:56.659Z,86.90
2022-08-20T12:15:24.044Z,87.10
2022-08-20T12:17:50.769Z,87.40
2022-08-20T12:20:17.441Z,86.20
2022-08-20T12:22:44.665Z,85.60
2022-08-20T12:25:12.023Z,85.20
2022-08-20T12:27:39.287Z,84.20
2022-08-20T12:30:12.390Z,85.20
2022-08-20T12:32:39.644Z,85.00
2022-08-20T12:35:08.632Z,84.20
2022-08-20T12:37:36.317Z,83.00
2022-08-20T12:40:07.406Z,83.60
2022-08-20T12:42:34.240Z,83.30
2022-08-20T12:45:00.927Z,82.80
2022-08-20T12:47:40.219Z,83.60
2022-08-20T12:50:18.540Z,83.40
2022-08-20T12:52:45.800Z,83.30
2022-08-20T12:55:14.995Z,81.60
2022-08-20T12:58:09.693Z,82.00
2022-08-20T13:00:43.318Z,82.20
2022-08-20T13:03:11.228Z,81.50
2022-08-20T13:05:38.242Z,81.70
2022-08-20T13:08:10.038Z,82.10
2022-08-20T13:10:44.009Z,82.00
2022-08-20T13:13:11.904Z,82.20
2022-08-20T13:15:38.850Z,82.10
2022-08-20T13:18:08.518Z,81.60
2022-08-20T13:20:35.333Z,81.50
2022-08-20T13:23:05.942Z,81.50
2022-08-20T13:25:33.448Z,81.70
2022-08-20T13:28:03.686Z,82.20
2022-08-20T13:30:31.876Z,82.00
2022-08-20T13:32:58.687Z,82.10
2022-08-20T13:35:25.609Z,83.10
2022-08-20T13:37:52.272Z,83.30
2022-08-20T13:40:19.275Z,83.80
2022-08-20T13:42:46.006Z,84.50
2022-08-20T13:45:13.196Z,84.10
2022-08-20T13:47:41.605Z,83.90
2022-08-20T13:50:10.293Z,83.40
2022-08-20T13:52:38.350Z,83.50
2022-08-20T13:55:07.307Z,82.70
2022-08-20T13:57:34.427Z,82.40
2022-08-20T14:00:01.560Z,81.70
2022-08-20T14:02:28.521Z,81.90
2022-08-20T14:04:55.277Z,81.10
2022-08-20T14:07:28.876Z,80.50
2022-08-20T14:10:01.668Z,80.50
2022-08-20T14:12:30.732Z,80.90
2022-08-20T14:14:58.064Z,80.90
2022-08-20T14:17:31.100Z,80.00
2022-08-20T14:20:01.701Z,80.70
2022-08-20T14:22:29.535Z,79.30
2022-08-20T14:24:56.617Z,79.10
2022-08-20T14:27:29.011Z,78.60
2022-08-20T14:29:55.862Z,78.20
2022-08-20T14:32:22.534Z,78.90
2022-08-20T14:34:49.442Z,77.20
2022-08-20T14:37:22.160Z,76.10
2022-08-20T14:39:52.674Z,76.10
2022-08-20T14:42:22.859Z,75.00
2022-08-20T14:44:53.080Z,74.70
2022-08-20T14:47:23.051Z,73.10
2022-08-20T14:49:51.322Z,73.00
2022-08-20T14:52:19.781Z,73.60
2022-08-20T14:54:47.603Z,72.90
2022-08-20T14:57:15.622Z,73.80
2022-08-20T14:59:43.338Z,74.70
2022-08-20T15:02:12.457Z,74.30
2022-08-20T15:04:39.861Z,74.80
2022-08-20T15:07:14.324Z,74.50
2022-08-20T15:09:43.031Z,73.50
2022-08-20T15:12:09.710Z,73.10
2022-08-20T15:14:39.202Z,73.10
2022-08-20T15:17:06.258Z,72.90
2022-08-20T15:19:33.000Z,73.50
2022-08-20T15:21:59.888Z,73.20
2022-08-20T15:24:26.553Z,73.60
2022-08-20T15:26:53.245Z,73.90
2022-08-20T15:29:23.320Z,73.80
2022-08-20T15:31:51.031Z,74.40
2022-08-20T15:34:18.318Z,73.50
2022-08-20T15:36:45.676Z,74.20
2022-08-20T15:39:12.385Z,74.20
2022-08-20T15:41:39.062Z,74.40
2022-08-20T15:44:06.103Z,74.20
2022-08-20T15:46:36.334Z,72.70
2022-08-20T15:49:11.366Z,72.80
2022-08-20T15:51:49.537Z,72.80
2022-08-20T15:54:24.817Z,73.40
2022-08-20T15:57:03.265Z,73.30
2022-08-20T15:59:29.856Z,71.80
2022-08-20T16:02:26.085Z,71.90
2022-08-20T16:05:07.745Z,72.50
2022-08-20T16:07:49.597Z,71.50
2022-08-20T16:10:22.557Z,68.60
2022-08-20T16:12:54.320Z,66.10
2022-08-20T16:15:26.010Z,64.60
2022-08-20T16:18:08.533Z,62.90
2022-08-20T16:20:47.745Z,63.30
2022-08-20T16:23:23.390Z,65.80
2022-08-20T16:26:04.853Z,67.00
2022-08-20T16:28:53.003Z,69.00
2022-08-20T16:31:25.763Z,70.30
2022-08-20T16:34:01.217Z,71.20
2022-08-20T16:36:41.846Z,71.70
2022-08-20T16:39:16.681Z,71.70
2022-08-20T16:41:45.990Z,72.30
2022-08-20T16:44:29.661Z,70.80
2022-08-20T16:47:15.970Z,72.30
2022-08-20T16:49:57.366Z,72.60
2022-08-20T16:52:24.360Z,72.50
2022-08-20T16:54:50.977Z,72.60
2022-08-20T16:57:19.771Z,73.00
2022-08-20T16:59:55.695Z,73.70
2022-08-20T17:02:22.989Z,73.80
2022-08-20T17:04:59.005Z,74.30
2022-08-20T17:07:33.706Z,74.50
2022-08-20T17:10:20.202Z,74.20
2022-08-20T17:12:56.904Z,74.30
2022-08-20T17:15:27.996Z,78.70
2022-08-20T17:17:55.875Z,73.70
2022-08-20T17:20:29.032Z,74.20
2022-08-20T17:23:11.362Z,73.60
2022-08-20T17:25:38.475Z,73.70
2022-08-20T17:28:23.638Z,73.90
2022-08-20T17:30:50.720Z,73.90
2022-08-20T17:33:35.887Z,73.30
2022-08-20T17:36:13.537Z,74.10
2022-08-20T17:38:55.523Z,74.10
2022-08-20T17:41:30.070Z,74.80
2022-08-20T17:44:00.608Z,75.90
2022-08-20T17:46:32.533Z,76.30
2022-08-20T17:49:03.226Z,77.10
2022-08-20T17:51:49.249Z,75.40
2022-08-20T17:54:25.879Z,75.50
2022-08-20T17:56:57.926Z,75.60
2022-08-20T17:59:59.702Z,76.70
2022-08-20T18:02:18.771Z,77.00
2022-08-20T18:04:47.298Z,78.40
2022-08-20T18:07:51.834Z,79.50
2022-08-20T18:10:23.430Z,80.30
2022-08-20T18:12:52.902Z,79.20
2022-08-20T18:15:39.938Z,78.80
2022-08-20T18:18:25.375Z,79.50
2022-08-20T18:21:14.486Z,79.10
2022-08-20T18:23:47.726Z,79.90
2022-08-20T18:26:18.058Z,79.60
2022-08-20T18:28:59.211Z,80.50
2022-08-20T18:31:34.091Z,80.50
2022-08-20T18:34:35.489Z,80.30
2022-08-20T18:37:04.330Z,82.00
2022-08-20T18:39:39.946Z,81.00
2022-08-20T18:42:27.237Z,80.90
2022-08-20T18:44:55.727Z,81.80
2022-08-20T18:47:33.147Z,81.20
2022-08-20T18:50:16.197Z,81.80
2022-08-20T18:52:49.694Z,81.60
2022-08-20T18:55:32.830Z,81.60
2022-08-20T18:58:02.565Z,81.60
2022-08-20T19:00:49.689Z,81.70
2022-08-20T19:03:38.270Z,82.20
2022-08-20T19:06:10.783Z,83.00
2022-08-20T19:09:04.563Z,82.70
2022-08-20T19:11:55.210Z,83.10
2022-08-20T19:14:40.597Z,83.30
2022-08-20T19:17:37.814Z,84.10
2022-08-20T19:20:10.434Z,83.50
2022-08-20T19:22:39.703Z,83.70
2022-08-20T19:25:07.750Z,84.10
2022-08-20T19:27:34.562Z,84.00
2022-08-20T19:30:01.622Z,84.00
2022-08-20T19:32:31.198Z,84.30
2022-08-20T19:35:05.018Z,84.50
2022-08-20T19:37:50.478Z,84.70
2022-08-20T19:40:28.442Z,84.80
2022-08-20T19:42:57.067Z,84.30
2022-08-20T19:45:27.125Z,84.20
2022-08-20T19:48:08.014Z,84.60
2022-08-20T19:50:57.207Z,85.00
2022-08-20T19:53:31.145Z,84.70
2022-08-20T19:56:09.569Z,85.30
2022-08-20T19:58:36.577Z,85.70
2022-08-20T20:01:08.613Z,85.70
2022-08-20T20:03:37.839Z,86.20
2022-08-20T20:06:17.341Z,87.20
2022-08-20T20:08:52.733Z,86.20
2022-08-20T20:11:24.713Z,86.50
2022-08-20T20:13:51.390Z,86.80
2022-08-20T20:16:20.885Z,87.20
2022-08-20T20:19:03.814Z,87.30
2022-08-20T20:21:42.239Z,87.20
2022-08-20T20:24:10.390Z,87.50
2022-08-20T20:26:41.081Z,87.70
2022-08-20T20:29:20.818Z,87.60
2022-08-20T20:31:56.558Z,88.10
2022-08-20T20:34:36.090Z,87.90
2022-08-20T20:37:10.494Z,88.50
2022-08-20T20:39:41.065Z,88.50
2022-08-20T20:42:10.593Z,88.50
2022-08-20T20:44:40.266Z,88.90
2022-08-20T20:47:17.137Z,88.60
2022-08-20T20:49:59.559Z,88.30
2022-08-20T20:52:30.870Z,88.60
2022-08-20T20:55:28.458Z,89.20
2022-08-20T20:57:55.811Z,89.70
2022-08-20T21:00:26.133Z,89.90
2022-08-20T21:02:52.923Z,89.20
2022-08-20T21:05:22.591Z,89.80
2022-08-20T21:07:55.893Z,89.90
2022-08-20T21:10:26.081Z,89.80
2022-08-20T21:12:53.651Z,90.00
2022-08-20T21:15:22.897Z,90.10
2022-08-20T21:17:50.019Z,90.10
2022-08-20T21:20:17.047Z,90.20
2022-08-20T21:22:43.720Z,90.20
2022-08-20T21:25:10.425Z,90.40
2022-08-20T21:27:37.305Z,90.50
2022-08-20T21:30:05.270Z,90.70
2022-08-20T21:32:31.909Z,91.00
2022-08-20T21:34:58.559Z,90.70
2022-08-20T21:37:25.236Z,90.80
2022-08-20T21:39:52.368Z,90.80
2022-08-20T21:42:29.424Z,90.90
2022-08-20T21:44:57.980Z,91.00
2022-08-20T21:47:25.263Z,91.30
2022-08-20T21:49:52.291Z,91.30
2022-08-20T21:52:19.053Z,91.30
2022-08-20T21:54:45.928Z,91.40
2022-08-20T21:57:21.701Z,91.40
2022-08-20T21:59:49.519Z,91.50
2022-08-20T22:02:17.838Z,91.60
2022-08-20T22:04:44.618Z,91.70
2022-08-20T22:07:11.646Z,91.60
2022-08-20T22:09:38.901Z,91.70
2022-08-20T22:12:11.258Z,91.80
2022-08-20T22:14:37.966Z,91.70
2022-08-20T22:17:04.745Z,91.50
2022-08-20T22:19:31.394Z,91.80
2022-08-20T22:21:58.149Z,92.00
2022-08-20T22:24:27.146Z,92.00
2022-08-20T22:26:54.054Z,92.00
2022-08-20T22:29:21.602Z,92.30
2022-08-20T22:31:48.785Z,92.30
2022-08-20T22:34:18.512Z,92.40
2022-08-20T22:36:45.270Z,92.40
2022-08-20T22:39:12.063Z,92.50
2022-08-20T22:41:39.337Z,92.50
2022-08-20T22:44:06.029Z,92.60
2022-08-20T22:46:36.062Z,92.50
2022-08-20T22:49:04.314Z,92.30
2022-08-20T22:51:34.672Z,92.70
2022-08-20T22:54:04.209Z,92.70
2022-08-20T22:56:31.113Z,92.80
2022-08-20T22:58:59.374Z,92.90
2022-08-20T23:01:27.346Z,93.00
2022-08-20T23:03:55.205Z,92.90
2022-08-20T23:06:22.361Z,93.10
2022-08-20T23:08:49.132Z,93.20
2022-08-20T23:11:15.915Z,93.10
2022-08-20T23:13:42.638Z,93.50
2022-08-20T23:16:09.419Z,93.70
2022-08-20T23:18:36.304Z,93.50
2022-08-20T23:21:03.264Z,93.20
2022-08-20T23:23:30.811Z,93.30
2022-08-20T23:25:57.691Z,93.30
2022-08-20T23:28:25.666Z,93.00
2022-08-20T23:30:52.517Z,93.10
2022-08-20T23:33:19.371Z,93.20
2022-08-20T23:35:46.512Z,93.10
2022-08-20T23:38:13.783Z,93.40
2022-08-20T23:40:41.209Z,93.50
2022-08-20T23:43:08.516Z,93.50
2022-08-20T23:45:35.878Z,93.70
2022-08-20T23:48:07.817Z,93.70
2022-08-20T23:50:35.258Z,93.60
2022-08-20T23:53:02.655Z,93.80
2022-08-20T23:55:29.398Z,93.80
2022-08-20T23:57:56.210Z,93.70
